首页
METAR-TAF:

METAR-TAF

机场 :

内塔吉·苏巴斯·钱德拉·鲍斯国际机场

加尔各答, 印度

纬度: 22-39N, 经度: 088-27E, 海拔: 4米

当前天气观测

该预报发布于33分钟前的19:00 UTC
风速10节,风向
温度 30°C
湿度 84%
气压 1004 hPa
能見度: 3800
散云层高于1800英尺
散云层高于10000英尺

METAR: VECC 231900Z 18010KT 3800 HZ SCT018 SCT100 30/27 Q1004 NOSIG

时间: 01:03 (19:33 UTC)

预报

该预报发布于2小时和33分钟前的17:00 UTC
预报有效从23日的 18点(UTC)到 24日的 24点(UTC)
风速10节,风向
能見度: 3000
散云层高于1800英尺
散云层高于10000英尺
几率 40% :
短暂存在
从 23日的 18点(UTC)到 23日的 22点(UTC)
风速15节,风向西转西北,有时为25节阵风
能見度: 2000
散云层高于1500英尺
少量云层高于2500英尺, 积雨云.
阴天层高于9000英尺
雷暴, 雨
成为
从 23日的 22点(UTC)到 23日的 24点(UTC)
能見度: 2500
成为
从 24日的 02点(UTC)到 24日的 04点(UTC)
能見度: 4000
几率 30% :
短暂存在
从 24日的 12点(UTC)到 24日的 16点(UTC)
风速15节,风向西转西北,有时为25节阵风
能見度: 2000
散云层高于1500英尺
少量云层高于2500英尺, 积雨云.
阴天层高于9000英尺
雷暴, 雨
成为
从 24日的 22点(UTC)到 24日的 24点(UTC)
能見度: 2400

TAF: VECC 231700Z 2318/2424 18010KT 3000 HZ SCT018 SCT100 PROB40 TEMPO 2318/2322 30015G25KT 2000 TSRA SCT015 FEW025CB OVC090 BECMG 2322/2324 2500 HZ BECMG 2402/2404 4000 HZ PROB30 TEMPO 2412/2416 30015G25KT 2000 TSRA SCT015 FEW025CB OVC090 BECMG 2422/2424 2400 HZ

超过4000个机场的气象观测和天气预报(METAR&TAF报告)。

可查询的气象台以黄色和红色小点在地图上表示。

将鼠标移到小点上方,可查看气象台名称。

然后点击查看天气观测和预报。

如需切换地图:点击带黑十字的绿色按钮放大地图;点击带横线的绿色按钮缩小地图;或者点击绿色箭头查看邻近地区的地图。


METAR-TAF: